createdAt,value
2023-10-10T00:00:57.008Z,100065.56
2023-10-10T00:03:33.969Z,100066.12
2023-10-10T00:06:09.854Z,100062.77
2023-10-10T00:08:42.600Z,100060.60
2023-10-10T00:11:20.421Z,100062.70
2023-10-10T00:13:54.317Z,100060.98
2023-10-10T00:16:27.682Z,100052.67
2023-10-10T00:18:57.350Z,100054.45
2023-10-10T00:21:25.749Z,100062.41
2023-10-10T00:23:56.557Z,100064.22
2023-10-10T00:26:27.326Z,100064.10
2023-10-10T00:28:56.041Z,100059.08
2023-10-10T00:31:28.484Z,100065.25
2023-10-10T00:33:57.469Z,100058.73
2023-10-10T00:36:31.756Z,100058.61
2023-10-10T00:39:09.189Z,100056.25
2023-10-10T00:42:05.337Z,100054.30
2023-10-10T00:44:38.697Z,100048.73
2023-10-10T00:47:27.576Z,100056.64
2023-10-10T00:49:56.816Z,100050.40
2023-10-10T00:52:25.526Z,100055.23
2023-10-10T00:54:54.296Z,100053.33
2023-10-10T00:57:22.920Z,100058.89
2023-10-10T00:59:56.117Z,100059.41
2023-10-10T01:02:25.198Z,100065.55
2023-10-10T01:04:58.808Z,100066.36
2023-10-10T01:07:28.096Z,100063.45
2023-10-10T01:10:01.119Z,100060.36
2023-10-10T01:12:37.341Z,100055.63
2023-10-10T01:15:15.572Z,100048.02
2023-10-10T01:17:46.499Z,100056.63
2023-10-10T01:20:20.905Z,100059.77
2023-10-10T01:22:50.225Z,100064.61
2023-10-10T01:25:35.716Z,100067.31
2023-10-10T01:28:15.521Z,100069.42
2023-10-10T01:30:56.665Z,100064.91
2023-10-10T01:33:36.936Z,100066.14
2023-10-10T01:36:22.128Z,100075.17
2023-10-10T01:39:04.324Z,100084.21
2023-10-10T01:41:33.420Z,100080.39
2023-10-10T01:44:14.887Z,100075.52
2023-10-10T01:46:43.725Z,100076.33
2023-10-10T01:49:21.696Z,100077.58
2023-10-10T01:52:00.851Z,100083.34
2023-10-10T01:54:47.305Z,100082.47
2023-10-10T01:57:25.632Z,100086.44
2023-10-10T01:59:54.681Z,100085.18
2023-10-10T02:02:26.087Z,100074.41
2023-10-10T02:05:00.895Z,100081.02
2023-10-10T02:07:33.656Z,100081.06
2023-10-10T02:10:14.930Z,100079.70
2023-10-10T02:12:47.749Z,100090.11
2023-10-10T02:15:20.566Z,100082.16
2023-10-10T02:17:58.250Z,100091.73
2023-10-10T02:20:26.860Z,100090.19
2023-10-10T02:23:02.563Z,100085.89
2023-10-10T02:25:37.115Z,100089.65
2023-10-10T02:28:21.962Z,100077.87
2023-10-10T02:30:54.154Z,100087.56
2023-10-10T02:33:25.522Z,100091.52
2023-10-10T02:35:58.261Z,100086.27
2023-10-10T02:38:38.527Z,100091.54
2023-10-10T02:41:22.962Z,100085.89
2023-10-10T02:44:11.284Z,100092.48
2023-10-10T02:46:42.546Z,100094.19
2023-10-10T02:49:31.294Z,100092.89
2023-10-10T02:52:08.105Z,100097.81
2023-10-10T02:54:44.940Z,100087.88
2023-10-10T02:57:25.737Z,100094.77
2023-10-10T03:00:30.261Z,100095.91
2023-10-10T03:03:00.635Z,100102.30
2023-10-10T03:05:44.907Z,100103.14
2023-10-10T03:08:28.183Z,100104.21
2023-10-10T03:10:56.769Z,100106.43
2023-10-10T03:13:49.602Z,100108.31
2023-10-10T03:16:24.151Z,100109.70
2023-10-10T03:19:04.012Z,100115.73
2023-10-10T03:21:45.246Z,100119.02
2023-10-10T03:24:24.781Z,100120.97
2023-10-10T03:26:54.175Z,100120.98
2023-10-10T03:29:28.237Z,100123.20
2023-10-10T03:32:17.352Z,100121.52
2023-10-10T03:34:46.466Z,100124.30
2023-10-10T03:37:27.384Z,100127.54
2023-10-10T03:39:59.459Z,100129.54
2023-10-10T03:42:47.229Z,100131.73
2023-10-10T03:45:34.301Z,100133.73
2023-10-10T03:48:21.544Z,100130.84
2023-10-10T03:51:08.418Z,100131.09
2023-10-10T03:53:55.295Z,100138.21
2023-10-10T03:56:42.334Z,100140.17
2023-10-10T03:59:29.452Z,100142.14
2023-10-10T04:02:57.032Z,100139.46
2023-10-10T04:05:44.103Z,100149.55
2023-10-10T04:08:59.725Z,100150.34
2023-10-10T04:11:46.889Z,100159.85
2023-10-10T04:14:33.678Z,100157.28
2023-10-10T04:17:20.532Z,100158.18
2023-10-10T04:20:08.107Z,100161.46
2023-10-10T04:22:55.147Z,100171.34
2023-10-10T04:25:42.168Z,100172.09
2023-10-10T04:28:29.559Z,100177.78
2023-10-10T04:31:16.907Z,100181.48
2023-10-10T04:34:04.155Z,100185.98
2023-10-10T04:36:51.243Z,100183.66
2023-10-10T04:39:38.258Z,100181.41
2023-10-10T04:42:25.245Z,100193.88
2023-10-10T04:45:12.126Z,100181.55
2023-10-10T04:47:59.661Z,100195.36
2023-10-10T04:50:50.706Z,100201.81
2023-10-10T04:53:39.600Z,100203.05
2023-10-10T04:56:27.047Z,100212.91
2023-10-10T04:59:14.770Z,100220.52
2023-10-10T05:02:02.247Z,100224.71
2023-10-10T05:05:11.773Z,100225.14
2023-10-10T05:08:20.444Z,100220.73
2023-10-10T05:11:08.456Z,100235.91
2023-10-10T05:13:57.281Z,100230.14
2023-10-10T05:16:44.533Z,100234.91
2023-10-10T05:19:37.095Z,100244.56
2023-10-10T05:22:24.276Z,100248.45
2023-10-10T05:24:56.597Z,100244.23
2023-10-10T05:27:31.536Z,100256.00
2023-10-10T05:30:01.983Z,100252.41
2023-10-10T05:32:33.989Z,100257.12
2023-10-10T05:35:12.874Z,100261.49
2023-10-10T05:37:42.148Z,100268.63
2023-10-10T05:40:10.923Z,100252.81
2023-10-10T05:42:40.595Z,100260.02
2023-10-10T05:45:15.586Z,100277.83
2023-10-10T05:47:44.516Z,100285.29
2023-10-10T05:50:13.299Z,100283.48
2023-10-10T05:52:42.442Z,100294.87
2023-10-10T05:58:24.584Z,100286.51
2023-10-10T06:00:57.428Z,100261.96
2023-10-10T06:03:27.368Z,100269.79
2023-10-10T06:05:58.345Z,100273.81
2023-10-10T06:08:27.135Z,100281.54
2023-10-10T06:10:58.140Z,100275.26
2023-10-10T06:13:27.143Z,100285.60
2023-10-10T06:15:55.690Z,100288.81
2023-10-10T06:18:24.897Z,100289.52
2023-10-10T06:23:37.257Z,100294.30
2023-10-10T06:26:08.593Z,100302.59
2023-10-10T06:28:37.744Z,100318.32
2023-10-10T06:31:22.781Z,100323.70
2023-10-10T06:33:52.162Z,100325.77
2023-10-10T06:36:26.481Z,100319.31
2023-10-10T06:39:06.788Z,100320.69
2023-10-10T06:41:42.119Z,100330.96
2023-10-10T06:44:19.181Z,100319.48
2023-10-10T06:46:50.261Z,100335.12
2023-10-10T06:49:22.850Z,100330.73
2023-10-10T06:51:51.640Z,100346.90
2023-10-10T06:54:29.482Z,100343.49
2023-10-10T06:57:00.405Z,100339.59
2023-10-10T06:59:30.492Z,100334.58
2023-10-10T07:02:15.375Z,100333.43
2023-10-10T07:04:44.284Z,100341.13
2023-10-10T07:07:15.096Z,100344.23
2023-10-10T07:09:43.905Z,100340.10
2023-10-10T07:12:15.454Z,100333.89
2023-10-10T07:14:48.682Z,100338.96
2023-10-10T07:17:23.795Z,100331.35
2023-10-10T07:20:02.473Z,100357.73
2023-10-10T07:22:36.144Z,100364.36
2023-10-10T07:25:28.076Z,100371.86
2023-10-10T07:27:58.381Z,100365.09
2023-10-10T07:30:35.972Z,100370.02
2023-10-10T07:33:06.399Z,100350.20
2023-10-10T07:35:37.987Z,100367.64
2023-10-10T07:38:07.345Z,100362.10
2023-10-10T07:40:39.953Z,100374.95
2023-10-10T07:43:09.144Z,100380.45
2023-10-10T07:45:43.510Z,100374.33
2023-10-10T07:48:23.158Z,100381.33
2023-10-10T07:50:58.189Z,100363.45
2023-10-10T07:53:36.025Z,100372.19
2023-10-10T07:56:04.851Z,100383.28
2023-10-10T07:58:53.436Z,100376.23
2023-10-10T08:01:22.839Z,100369.52
2023-10-10T08:03:52.822Z,100376.80
2023-10-10T08:06:24.941Z,100377.55
2023-10-10T08:09:14.549Z,100383.70
2023-10-10T08:11:49.731Z,100382.93
2023-10-10T08:14:33.829Z,100392.93
2023-10-10T08:17:05.950Z,100387.83
2023-10-10T08:19:35.212Z,100389.76
2023-10-10T08:22:14.152Z,100378.10
2023-10-10T08:24:45.336Z,100393.83
2023-10-10T08:27:14.189Z,100392.36
2023-10-10T08:29:51.217Z,100392.94
2023-10-10T08:32:20.359Z,100385.52
2023-10-10T08:35:01.357Z,100383.27
2023-10-10T08:37:45.922Z,100377.85
2023-10-10T08:40:23.532Z,100374.13
2023-10-10T08:42:52.258Z,100358.25
2023-10-10T08:45:25.156Z,100385.60
2023-10-10T08:48:03.545Z,100386.16
2023-10-10T08:50:35.973Z,100387.50
2023-10-10T08:53:08.014Z,100394.32
2023-10-10T08:55:40.408Z,100392.90
2023-10-10T08:58:10.356Z,100394.52
2023-10-10T09:00:39.442Z,100396.90
2023-10-10T09:03:10.720Z,100396.41
2023-10-10T09:05:42.118Z,100391.20
2023-10-10T09:08:20.265Z,100402.66
2023-10-10T09:10:54.705Z,100398.64
2023-10-10T09:13:27.361Z,100402.55
2023-10-10T09:16:12.370Z,100410.09
2023-10-10T09:18:43.965Z,100399.64
2023-10-10T09:21:20.344Z,100391.49
2023-10-10T09:24:09.657Z,100394.29
2023-10-10T09:26:44.308Z,100385.04
2023-10-10T09:29:30.386Z,100385.69
2023-10-10T09:32:03.605Z,100387.80
2023-10-10T09:34:44.936Z,100397.30
2023-10-10T09:37:28.966Z,100395.48
2023-10-10T09:39:58.382Z,100400.47
2023-10-10T09:42:53.709Z,100397.00
2023-10-10T09:45:54.775Z,100396.16
2023-10-10T09:48:51.410Z,100396.63
2023-10-10T09:51:41.564Z,100393.90
2023-10-10T09:54:17.829Z,100400.14
2023-10-10T09:56:59.133Z,100397.16
2023-10-10T09:59:30.297Z,100397.73
2023-10-10T10:02:04.372Z,100393.48
2023-10-10T10:04:43.772Z,100389.02
2023-10-10T10:07:37.362Z,100386.80
2023-10-10T10:10:11.012Z,100380.41
2023-10-10T10:13:16.156Z,100390.41
2023-10-10T10:16:14.179Z,100385.33
2023-10-10T10:18:53.792Z,100381.48
2023-10-10T10:21:33.417Z,100380.34
2023-10-10T10:24:18.961Z,100377.02
2023-10-10T10:27:30.247Z,100380.20
2023-10-10T10:30:20.639Z,100375.36
2023-10-10T10:32:56.692Z,100362.46
2023-10-10T10:35:49.871Z,100361.77
2023-10-10T10:38:24.963Z,100362.09
2023-10-10T10:41:08.852Z,100350.98
2023-10-10T10:43:42.876Z,100348.07
2023-10-10T10:46:16.476Z,100358.34
2023-10-10T10:48:49.499Z,100349.67
2023-10-10T10:51:29.713Z,100351.79
2023-10-10T10:54:00.541Z,100340.72
2023-10-10T10:56:30.989Z,100344.38
2023-10-10T10:59:14.795Z,100343.31
2023-10-10T11:02:00.257Z,100350.01
2023-10-10T11:04:33.587Z,100346.88
2023-10-10T11:07:09.815Z,100353.59
2023-10-10T11:09:44.321Z,100353.30
2023-10-10T11:12:15.773Z,100353.23
2023-10-10T11:14:55.141Z,100341.02
2023-10-10T11:17:25.975Z,100331.65
2023-10-10T11:19:55.973Z,100339.44
2023-10-10T11:22:44.342Z,100350.09
2023-10-10T11:25:29.672Z,100347.52
2023-10-10T11:28:05.168Z,100349.69
2023-10-10T11:30:35.408Z,100345.67
2023-10-10T11:33:20.947Z,100351.07
2023-10-10T11:36:02.813Z,100356.95
2023-10-10T11:38:38.186Z,100345.65
2023-10-10T11:41:10.627Z,100347.45
2023-10-10T11:44:01.493Z,100350.86
2023-10-10T11:46:31.520Z,100327.23
2023-10-10T11:49:01.492Z,100342.16
2023-10-10T11:51:39.621Z,100346.88
2023-10-10T11:54:14.042Z,100345.77
2023-10-10T11:56:43.301Z,100355.61
2023-10-10T11:59:12.296Z,100358.02
2023-10-10T12:01:51.397Z,100356.59
2023-10-10T12:04:32.935Z,100358.91
2023-10-10T12:07:06.486Z,100350.79
2023-10-10T12:09:35.848Z,100344.45
2023-10-10T12:12:07.679Z,100351.30
2023-10-10T12:14:36.723Z,100356.63
2023-10-10T12:17:09.032Z,100349.98
2023-10-10T12:19:45.369Z,100359.07
2023-10-10T12:22:14.424Z,100359.27
2023-10-10T12:24:43.079Z,100357.49
2023-10-10T12:27:11.903Z,100362.96
2023-10-10T12:29:43.438Z,100347.16
2023-10-10T12:32:23.889Z,100345.24
2023-10-10T12:34:52.649Z,100356.52
2023-10-10T12:37:24.794Z,100364.67
2023-10-10T12:39:53.844Z,100364.27
2023-10-10T12:42:22.608Z,100368.04
2023-10-10T12:44:51.295Z,100364.26
2023-10-10T12:47:28.176Z,100363.33
2023-10-10T12:50:01.960Z,100356.46
2023-10-10T12:52:37.009Z,100356.77
2023-10-10T12:55:11.350Z,100357.27
2023-10-10T12:57:40.579Z,100363.98
2023-10-10T13:00:24.961Z,100358.14
2023-10-10T13:02:55.307Z,100368.63
2023-10-10T13:05:30.474Z,100353.63
2023-10-10T13:08:07.792Z,100354.65
2023-10-10T13:10:39.008Z,100358.13
2023-10-10T13:13:11.011Z,100361.69
2023-10-10T13:15:50.678Z,100352.63
2023-10-10T13:18:22.054Z,100350.29
2023-10-10T13:21:02.660Z,100355.90
2023-10-10T13:23:32.037Z,100353.39
2023-10-10T13:26:00.609Z,100351.45
2023-10-10T13:28:29.305Z,100347.09
2023-10-10T13:30:59.528Z,100349.94
2023-10-10T13:33:28.194Z,100356.86
2023-10-10T13:35:56.827Z,100357.65
2023-10-10T13:38:26.628Z,100362.92
2023-10-10T13:40:55.374Z,100362.02
2023-10-10T13:43:23.924Z,100367.52
2023-10-10T13:45:52.747Z,100377.48
2023-10-10T13:48:24.824Z,100370.83
2023-10-10T13:50:55.688Z,100374.19
2023-10-10T13:53:24.475Z,100365.02
2023-10-10T13:55:52.989Z,100374.58
2023-10-10T13:58:21.552Z,100371.27
2023-10-10T14:00:57.427Z,100378.54
2023-10-10T14:03:36.934Z,100377.83
2023-10-10T14:06:05.840Z,100371.61
2023-10-10T14:08:34.706Z,100379.36
2023-10-10T14:11:03.438Z,100388.90
2023-10-10T14:13:32.075Z,100380.38
2023-10-10T14:16:02.656Z,100390.56
2023-10-10T14:18:43.550Z,100386.33
2023-10-10T14:21:13.084Z,100392.61
2023-10-10T14:23:42.540Z,100392.95
2023-10-10T14:26:15.181Z,100390.60
2023-10-10T14:28:54.021Z,100397.52
2023-10-10T14:31:25.379Z,100407.83
2023-10-10T14:33:56.127Z,100408.23
2023-10-10T14:36:24.941Z,100412.34
2023-10-10T14:38:54.105Z,100417.71
2023-10-10T14:41:24.156Z,100421.54
2023-10-10T14:43:56.012Z,100426.95
2023-10-10T14:46:34.346Z,100434.83
2023-10-10T14:49:18.562Z,100431.98
2023-10-10T14:51:49.989Z,100436.77
2023-10-10T14:54:21.420Z,100439.17
2023-10-10T14:56:53.944Z,100442.51
2023-10-10T14:59:33.121Z,100447.42
2023-10-10T15:02:02.357Z,100447.08
2023-10-10T15:04:31.301Z,100443.48
2023-10-10T15:07:00.687Z,100450.17
2023-10-10T15:09:36.866Z,100454.30
2023-10-10T15:12:08.458Z,100459.45
2023-10-10T15:14:37.051Z,100462.41
2023-10-10T15:17:06.468Z,100468.51
2023-10-10T15:19:35.194Z,100473.52
2023-10-10T15:22:04.157Z,100477.63
2023-10-10T15:24:40.352Z,100477.03
2023-10-10T15:27:12.123Z,100476.14
2023-10-10T15:29:44.475Z,100486.55
2023-10-10T15:32:16.469Z,100490.38
2023-10-10T15:34:46.049Z,100492.00
2023-10-10T15:37:17.321Z,100493.02
2023-10-10T15:39:45.770Z,100482.73
2023-10-10T15:42:14.298Z,100500.15
2023-10-10T15:44:46.054Z,100488.54
2023-10-10T15:47:15.691Z,100500.11
2023-10-10T15:49:44.241Z,100500.07
2023-10-10T15:52:12.796Z,100504.06
2023-10-10T15:54:41.413Z,100502.20
2023-10-10T15:57:10.832Z,100503.42
2023-10-10T15:59:43.839Z,100506.84
2023-10-10T16:02:15.392Z,100505.17
2023-10-10T16:04:46.346Z,100510.12
2023-10-10T16:07:18.079Z,100504.87
2023-10-10T16:09:46.998Z,100509.54
2023-10-10T16:12:15.870Z,100511.16
2023-10-10T16:14:44.502Z,100513.84
2023-10-10T16:17:17.636Z,100511.95
2023-10-10T16:19:47.304Z,100520.25
2023-10-10T16:22:16.307Z,100513.63
2023-10-10T16:24:46.091Z,100516.03
2023-10-10T16:27:14.664Z,100514.66
2023-10-10T16:29:43.933Z,100503.17
2023-10-10T16:32:19.843Z,100516.44
2023-10-10T16:34:48.895Z,100521.86
2023-10-10T16:37:20.011Z,100524.20
2023-10-10T16:39:50.111Z,100530.02
2023-10-10T16:42:20.987Z,100527.46
2023-10-10T16:44:54.597Z,100534.89
2023-10-10T16:47:23.728Z,100537.86
2023-10-10T16:49:52.662Z,100543.90
2023-10-10T16:52:21.653Z,100538.31
2023-10-10T16:54:53.401Z,100545.06
2023-10-10T16:57:25.759Z,100540.59
2023-10-10T16:59:57.978Z,100541.41
2023-10-10T17:02:30.020Z,100547.85
2023-10-10T17:05:02.532Z,100551.69
2023-10-10T17:07:31.302Z,100552.65
2023-10-10T17:10:06.438Z,100561.23
2023-10-10T17:12:35.290Z,100557.70
2023-10-10T17:15:06.226Z,100568.10
2023-10-10T17:17:37.169Z,100567.10
2023-10-10T17:20:06.929Z,100566.02
2023-10-10T17:22:37.364Z,100559.02
2023-10-10T17:25:09.897Z,100561.63
2023-10-10T17:27:39.122Z,100565.05
2023-10-10T17:30:15.566Z,100564.80
2023-10-10T17:32:45.183Z,100572.09
2023-10-10T17:35:13.938Z,100575.02
2023-10-10T17:37:42.952Z,100578.33
2023-10-10T17:40:14.687Z,100579.89
2023-10-10T17:42:47.639Z,100580.09
2023-10-10T17:45:16.313Z,100575.37
2023-10-10T17:47:45.009Z,100581.83
2023-10-10T17:50:16.700Z,100577.85
2023-10-10T17:52:45.745Z,100578.02
2023-10-10T17:55:14.576Z,100583.39
2023-10-10T17:57:43.494Z,100580.08
2023-10-10T18:00:15.755Z,100584.42
2023-10-10T18:02:47.566Z,100587.33
2023-10-10T18:05:16.396Z,100588.92
2023-10-10T18:07:45.506Z,100591.33
2023-10-10T18:10:14.588Z,100593.17
2023-10-10T18:12:43.863Z,100594.77
2023-10-10T18:15:12.902Z,100602.35
2023-10-10T18:17:41.510Z,100602.52
2023-10-10T18:20:16.306Z,100602.42
2023-10-10T18:22:46.816Z,100605.15
2023-10-10T18:25:15.561Z,100605.79
2023-10-10T18:27:46.286Z,100610.52
2023-10-10T18:30:20.858Z,100618.89
2023-10-10T18:32:52.857Z,100623.48
2023-10-10T18:35:21.470Z,100618.86
2023-10-10T18:37:50.168Z,100632.58
2023-10-10T18:40:19.611Z,100631.77
2023-10-10T18:42:49.924Z,100636.59
2023-10-10T18:45:19.956Z,100635.96
2023-10-10T18:47:49.045Z,100641.56
2023-10-10T18:50:22.173Z,100644.94
2023-10-10T18:52:53.108Z,100646.14
2023-10-10T18:55:26.647Z,100652.54
2023-10-10T18:58:01.650Z,100645.78
2023-10-10T19:00:36.122Z,100659.01
2023-10-10T19:03:08.739Z,100664.20
2023-10-10T19:05:37.825Z,100667.87
2023-10-10T19:08:07.347Z,100670.21
2023-10-10T19:10:36.735Z,100659.89
2023-10-10T19:13:06.192Z,100668.73
2023-10-10T19:15:41.959Z,100670.84
2023-10-10T19:18:12.027Z,100677.02
2023-10-10T19:20:41.222Z,100678.57
2023-10-10T19:23:10.731Z,100682.75
2023-10-10T19:25:57.407Z,100676.77
2023-10-10T19:28:26.020Z,100683.14
2023-10-10T19:30:54.558Z,100681.96
2023-10-10T19:33:23.702Z,100687.15
2023-10-10T19:35:52.397Z,100689.33
2023-10-10T19:38:27.127Z,100682.02
2023-10-10T19:40:57.109Z,100687.92
2023-10-10T19:43:26.686Z,100690.98
2023-10-10T19:45:56.448Z,100697.20
2023-10-10T19:48:28.847Z,100686.73
2023-10-10T19:50:58.393Z,100692.55
2023-10-10T19:53:30.137Z,100685.77
2023-10-10T19:55:58.649Z,100691.86
2023-10-10T19:58:27.221Z,100681.84
2023-10-10T20:00:55.783Z,100691.57
2023-10-10T20:03:29.259Z,100687.73
2023-10-10T20:05:59.017Z,100688.16
2023-10-10T20:08:27.704Z,100689.02
2023-10-10T20:10:57.910Z,100691.71
2023-10-10T20:13:27.942Z,100691.39
2023-10-10T20:15:56.410Z,100691.77
2023-10-10T20:18:26.452Z,100690.04
2023-10-10T20:20:55.198Z,100689.16
2023-10-10T20:23:23.811Z,100693.84
2023-10-10T20:25:52.626Z,100694.53
2023-10-10T20:28:21.297Z,100697.27
2023-10-10T20:30:49.978Z,100698.43
2023-10-10T20:33:19.888Z,100703.73
2023-10-10T20:35:48.610Z,100704.69
2023-10-10T20:38:21.013Z,100702.65
2023-10-10T20:40:49.745Z,100701.92
2023-10-10T20:43:18.313Z,100698.36
2023-10-10T20:45:46.851Z,100702.40
2023-10-10T20:48:23.284Z,100700.02
2023-10-10T20:50:52.106Z,100683.83
2023-10-10T20:53:29.402Z,100689.74
2023-10-10T20:55:58.073Z,100705.02
2023-10-10T20:58:26.729Z,100708.17
2023-10-10T21:00:56.586Z,100698.92
2023-10-10T21:03:25.260Z,100701.38
2023-10-10T21:05:53.967Z,100700.39
2023-10-10T21:08:22.549Z,100696.47
2023-10-10T21:10:51.855Z,100686.63
2023-10-10T21:13:20.511Z,100694.63
2023-10-10T21:15:50.727Z,100697.69
2023-10-10T21:18:22.713Z,100696.71
2023-10-10T21:21:02.842Z,100696.58
2023-10-10T21:23:32.961Z,100699.77
2023-10-10T21:26:04.459Z,100696.30
2023-10-10T21:28:33.062Z,100692.48
2023-10-10T21:31:09.531Z,100702.02
2023-10-10T21:33:42.072Z,100699.52
2023-10-10T21:36:14.643Z,100703.28
2023-10-10T21:38:43.695Z,100696.79
2023-10-10T21:41:13.058Z,100700.90
2023-10-10T21:43:41.662Z,100702.64
2023-10-10T21:46:10.410Z,100704.19
2023-10-10T21:48:41.184Z,100704.55
2023-10-10T21:51:09.855Z,100708.54
2023-10-10T21:53:38.526Z,100710.86
2023-10-10T21:56:08.286Z,100708.64
2023-10-10T21:58:40.639Z,100713.55
2023-10-10T22:01:12.616Z,100716.56
2023-10-10T22:03:46.028Z,100720.54
2023-10-10T22:06:15.101Z,100711.79
2023-10-10T22:08:46.496Z,100721.63
2023-10-10T22:11:15.951Z,100724.25
2023-10-10T22:13:45.320Z,100729.23
2023-10-10T22:16:13.894Z,100726.54
2023-10-10T22:18:42.953Z,100734.33
2023-10-10T22:21:11.761Z,100731.67
2023-10-10T22:23:40.806Z,100743.16
2023-10-10T22:26:10.617Z,100747.66
2023-10-10T22:28:40.402Z,100748.42
2023-10-10T22:31:15.837Z,100757.44
2023-10-10T22:33:45.619Z,100759.17
2023-10-10T22:36:17.933Z,100753.65
2023-10-10T22:38:47.209Z,100768.91
2023-10-10T22:41:16.536Z,100768.00
2023-10-10T22:43:46.087Z,100763.79
2023-10-10T22:46:14.712Z,100773.64
2023-10-10T22:48:44.676Z,100770.86
2023-10-10T22:51:14.672Z,100770.76
2023-10-10T22:53:47.522Z,100768.94
2023-10-10T22:56:19.551Z,100768.91
2023-10-10T22:58:48.652Z,100770.13
2023-10-10T23:01:17.358Z,100768.17
2023-10-10T23:03:49.288Z,100766.17
2023-10-10T23:06:17.887Z,100767.18
2023-10-10T23:08:47.401Z,100768.10
2023-10-10T23:11:18.239Z,100770.62
2023-10-10T23:13:47.582Z,100765.41
2023-10-10T23:16:18.689Z,100766.78
2023-10-10T23:18:47.617Z,100774.21
2023-10-10T23:21:16.286Z,100778.53
2023-10-10T23:23:45.013Z,100769.02
2023-10-10T23:26:20.036Z,100769.98
2023-10-10T23:28:50.091Z,100762.92
2023-10-10T23:31:20.069Z,100762.14
2023-10-10T23:33:48.640Z,100764.27
2023-10-10T23:36:20.313Z,100762.27
2023-10-10T23:38:49.724Z,100763.45
2023-10-10T23:41:19.937Z,100760.18
2023-10-10T23:43:48.550Z,100749.15
2023-10-10T23:46:23.895Z,100749.05
2023-10-10T23:48:56.221Z,100743.57
2023-10-10T23:51:24.981Z,100739.15
2023-10-10T23:53:53.578Z,100733.49
2023-10-10T23:56:24.217Z,100727.21
2023-10-10T23:58:53.406Z,100732.40
